sensor_id;sensor_type;location;lat;lon;timestamp;P1;durP1;ratioP1;P2;durP2;ratioP2
23728;SDS011;12045;60.214;24.724;2023-03-24T00:00:33;61.67;;;4.13;;
23728;SDS011;12045;60.214;24.724;2023-03-24T00:03:00;74.60;;;3.87;;
23728;SDS011;12045;60.214;24.724;2023-03-24T00:05:29;70.20;;;4.47;;
23728;SDS011;12045;60.214;24.724;2023-03-24T00:07:57;69.70;;;4.07;;
23728;SDS011;12045;60.214;24.724;2023-03-24T00:10:30;72.73;;;3.93;;
23728;SDS011;12045;60.214;24.724;2023-03-24T00:13:01;59.90;;;4.33;;
23728;SDS011;12045;60.214;24.724;2023-03-24T00:15:29;101.70;;;5.37;;
23728;SDS011;12045;60.214;24.724;2023-03-24T00:17:57;46.23;;;4.60;;
23728;SDS011;12045;60.214;24.724;2023-03-24T00:20:25;56.13;;;5.00;;
23728;SDS011;12045;60.214;24.724;2023-03-24T00:22:53;37.60;;;3.63;;
23728;SDS011;12045;60.214;24.724;2023-03-24T00:25:29;38.07;;;3.70;;
23728;SDS011;12045;60.214;24.724;2023-03-24T00:28:02;35.57;;;3.40;;
23728;SDS011;12045;60.214;24.724;2023-03-24T00:30:33;47.53;;;5.07;;
23728;SDS011;12045;60.214;24.724;2023-03-24T00:33:01;39.57;;;4.10;;
23728;SDS011;12045;60.214;24.724;2023-03-24T00:35:30;19.50;;;3.63;;
23728;SDS011;12045;60.214;24.724;2023-03-24T00:37:57;40.27;;;3.90;;
23728;SDS011;12045;60.214;24.724;2023-03-24T00:40:26;28.73;;;4.07;;
23728;SDS011;12045;60.214;24.724;2023-03-24T00:42:54;24.53;;;3.87;;
23728;SDS011;12045;60.214;24.724;2023-03-24T00:45:21;38.70;;;4.23;;
23728;SDS011;12045;60.214;24.724;2023-03-24T00:47:51;20.33;;;3.23;;
23728;SDS011;12045;60.214;24.724;2023-03-24T00:50:24;10.43;;;2.93;;
23728;SDS011;12045;60.214;24.724;2023-03-24T00:52:53;9.87;;;2.93;;
23728;SDS011;12045;60.214;24.724;2023-03-24T00:55:21;6.13;;;2.77;;
23728;SDS011;12045;60.214;24.724;2023-03-24T00:57:49;8.00;;;2.60;;
23728;SDS011;12045;60.214;24.724;2023-03-24T01:00:21;8.17;;;2.80;;
23728;SDS011;12045;60.214;24.724;2023-03-24T01:02:51;6.57;;;2.90;;
23728;SDS011;12045;60.214;24.724;2023-03-24T01:05:21;6.77;;;2.47;;
23728;SDS011;12045;60.214;24.724;2023-03-24T01:07:57;5.57;;;2.70;;
23728;SDS011;12045;60.214;24.724;2023-03-24T01:10:30;4.43;;;2.00;;
23728;SDS011;12045;60.214;24.724;2023-03-24T01:13:00;4.03;;;1.90;;
23728;SDS011;12045;60.214;24.724;2023-03-24T01:15:30;6.77;;;3.10;;
23728;SDS011;12045;60.214;24.724;2023-03-24T01:17:59;6.77;;;2.90;;
23728;SDS011;12045;60.214;24.724;2023-03-24T01:20:30;8.13;;;2.93;;
23728;SDS011;12045;60.214;24.724;2023-03-24T01:22:59;5.67;;;2.60;;
23728;SDS011;12045;60.214;24.724;2023-03-24T01:25:30;5.63;;;3.03;;
23728;SDS011;12045;60.214;24.724;2023-03-24T01:27:58;6.97;;;3.20;;
23728;SDS011;12045;60.214;24.724;2023-03-24T01:30:26;7.03;;;2.90;;
23728;SDS011;12045;60.214;24.724;2023-03-24T01:32:55;7.93;;;3.10;;
23728;SDS011;12045;60.214;24.724;2023-03-24T01:35:24;7.20;;;3.10;;
23728;SDS011;12045;60.214;24.724;2023-03-24T01:37:55;6.23;;;2.60;;
23728;SDS011;12045;60.214;24.724;2023-03-24T01:40:32;6.10;;;2.87;;
23728;SDS011;12045;60.214;24.724;2023-03-24T01:43:02;5.10;;;2.57;;
23728;SDS011;12045;60.214;24.724;2023-03-24T01:48:42;8.13;;;2.87;;
23728;SDS011;12045;60.214;24.724;2023-03-24T01:51:10;8.57;;;3.00;;
23728;SDS011;12045;60.214;24.724;2023-03-24T01:54:01;8.53;;;3.13;;
23728;SDS011;12045;60.214;24.724;2023-03-24T01:56:34;9.27;;;3.50;;
23728;SDS011;12045;60.214;24.724;2023-03-24T01:59:07;10.00;;;3.73;;
23728;SDS011;12045;60.214;24.724;2023-03-24T02:01:44;8.93;;;3.60;;
23728;SDS011;12045;60.214;24.724;2023-03-24T02:04:12;9.67;;;3.60;;
23728;SDS011;12045;60.214;24.724;2023-03-24T02:06:41;9.17;;;3.70;;
23728;SDS011;12045;60.214;24.724;2023-03-24T02:09:11;9.10;;;4.00;;
23728;SDS011;12045;60.214;24.724;2023-03-24T02:11:40;9.90;;;4.00;;
23728;SDS011;12045;60.214;24.724;2023-03-24T02:14:08;7.40;;;3.20;;
23728;SDS011;12045;60.214;24.724;2023-03-24T02:19:19;8.90;;;3.57;;
23728;SDS011;12045;60.214;24.724;2023-03-24T02:53:11;16.93;;;4.60;;
23728;SDS011;12045;60.214;24.724;2023-03-24T02:55:51;12.23;;;4.67;;
23728;SDS011;12045;60.214;24.724;2023-03-24T03:01:27;16.30;;;4.77;;
23728;SDS011;12045;60.214;24.724;2023-03-24T03:04:02;16.20;;;5.23;;
23728;SDS011;12045;60.214;24.724;2023-03-24T03:06:35;19.30;;;4.73;;
23728;SDS011;12045;60.214;24.724;2023-03-24T03:09:07;18.58;;;4.65;;
23728;SDS011;12045;60.214;24.724;2023-03-24T03:11:38;26.42;;;5.30;;
23728;SDS011;12045;60.214;24.724;2023-03-24T03:14:12;25.20;;;5.30;;
23728;SDS011;12045;60.214;24.724;2023-03-24T03:16:45;16.95;;;5.05;;
23728;SDS011;12045;60.214;24.724;2023-03-24T03:19:14;17.23;;;5.25;;
23728;SDS011;12045;60.214;24.724;2023-03-24T03:21:46;33.60;;;6.67;;
23728;SDS011;12045;60.214;24.724;2023-03-24T03:24:20;24.65;;;5.32;;
23728;SDS011;12045;60.214;24.724;2023-03-24T03:26:57;25.85;;;5.93;;
23728;SDS011;12045;60.214;24.724;2023-03-24T03:29:29;20.97;;;6.00;;
23728;SDS011;12045;60.214;24.724;2023-03-24T03:32:03;44.40;;;6.70;;
23728;SDS011;12045;60.214;24.724;2023-03-24T03:34:40;51.67;;;7.60;;
23728;SDS011;12045;60.214;24.724;2023-03-24T03:37:12;63.88;;;8.32;;
23728;SDS011;12045;60.214;24.724;2023-03-24T03:40:17;36.60;;;7.03;;
23728;SDS011;12045;60.214;24.724;2023-03-24T03:42:51;39.77;;;7.43;;
23728;SDS011;12045;60.214;24.724;2023-03-24T03:45:18;85.50;;;8.40;;
23728;SDS011;12045;60.214;24.724;2023-03-24T03:47:46;60.35;;;7.78;;
23728;SDS011;12045;60.214;24.724;2023-03-24T03:50:14;93.73;;;9.97;;
23728;SDS011;12045;60.214;24.724;2023-03-24T03:52:41;75.13;;;8.90;;
23728;SDS011;12045;60.214;24.724;2023-03-24T03:55:10;50.42;;;7.90;;
23728;SDS011;12045;60.214;24.724;2023-03-24T03:57:38;63.17;;;7.67;;
23728;SDS011;12045;60.214;24.724;2023-03-24T04:00:10;55.25;;;7.47;;
23728;SDS011;12045;60.214;24.724;2023-03-24T04:05:34;92.18;;;7.93;;
23728;SDS011;12045;60.214;24.724;2023-03-24T04:13:29;63.22;;;6.70;;
23728;SDS011;12045;60.214;24.724;2023-03-24T04:16:21;54.88;;;6.50;;
23728;SDS011;12045;60.214;24.724;2023-03-24T04:19:00;51.90;;;6.60;;
23728;SDS011;12045;60.214;24.724;2023-03-24T04:21:44;87.10;;;7.68;;
23728;SDS011;12045;60.214;24.724;2023-03-24T04:24:27;117.80;;;8.57;;
23728;SDS011;12045;60.214;24.724;2023-03-24T04:27:17;81.22;;;6.85;;
23728;SDS011;12045;60.214;24.724;2023-03-24T04:30:27;62.33;;;6.80;;
23728;SDS011;12045;60.214;24.724;2023-03-24T04:33:05;72.53;;;6.03;;
23728;SDS011;12045;60.214;24.724;2023-03-24T04:35:54;215.27;;;9.88;;
23728;SDS011;12045;60.214;24.724;2023-03-24T04:38:32;61.40;;;6.00;;
23728;SDS011;12045;60.214;24.724;2023-03-24T04:41:02;71.40;;;6.38;;
23728;SDS011;12045;60.214;24.724;2023-03-24T04:43:32;42.67;;;6.07;;
23728;SDS011;12045;60.214;24.724;2023-03-24T04:46:03;55.88;;;6.18;;
23728;SDS011;12045;60.214;24.724;2023-03-24T04:48:32;37.17;;;4.70;;
23728;SDS011;12045;60.214;24.724;2023-03-24T04:51:00;55.07;;;6.00;;
23728;SDS011;12045;60.214;24.724;2023-03-24T04:53:29;125.47;;;7.60;;
23728;SDS011;12045;60.214;24.724;2023-03-24T04:58:40;64.47;;;6.05;;
23728;SDS011;12045;60.214;24.724;2023-03-24T05:01:07;57.23;;;5.57;;
23728;SDS011;12045;60.214;24.724;2023-03-24T05:03:35;54.90;;;5.28;;
23728;SDS011;12045;60.214;24.724;2023-03-24T05:06:04;43.85;;;5.00;;
23728;SDS011;12045;60.214;24.724;2023-03-24T05:08:31;84.88;;;6.25;;
23728;SDS011;12045;60.214;24.724;2023-03-24T05:10:59;35.72;;;4.65;;
23728;SDS011;12045;60.214;24.724;2023-03-24T05:13:27;24.15;;;4.20;;
23728;SDS011;12045;60.214;24.724;2023-03-24T05:15:54;38.45;;;4.93;;
23728;SDS011;12045;60.214;24.724;2023-03-24T05:18:22;86.43;;;7.03;;
23728;SDS011;12045;60.214;24.724;2023-03-24T05:20:50;58.25;;;5.78;;
23728;SDS011;12045;60.214;24.724;2023-03-24T05:23:19;71.53;;;6.05;;
23728;SDS011;12045;60.214;24.724;2023-03-24T05:25:46;75.15;;;6.00;;
23728;SDS011;12045;60.214;24.724;2023-03-24T05:28:14;34.65;;;5.32;;
23728;SDS011;12045;60.214;24.724;2023-03-24T05:30:42;80.32;;;6.15;;
23728;SDS011;12045;60.214;24.724;2023-03-24T05:33:09;43.35;;;4.72;;
23728;SDS011;12045;60.214;24.724;2023-03-24T05:35:37;37.90;;;5.05;;
23728;SDS011;12045;60.214;24.724;2023-03-24T05:38:04;41.70;;;5.57;;
23728;SDS011;12045;60.214;24.724;2023-03-24T05:40:32;26.05;;;5.53;;
23728;SDS011;12045;60.214;24.724;2023-03-24T05:43:00;33.47;;;5.38;;
23728;SDS011;12045;60.214;24.724;2023-03-24T05:45:27;22.63;;;5.18;;
23728;SDS011;12045;60.214;24.724;2023-03-24T05:47:56;27.93;;;5.27;;
23728;SDS011;12045;60.214;24.724;2023-03-24T05:50:24;25.70;;;5.05;;
23728;SDS011;12045;60.214;24.724;2023-03-24T05:52:51;109.97;;;7.32;;
23728;SDS011;12045;60.214;24.724;2023-03-24T05:55:19;58.65;;;6.00;;
23728;SDS011;12045;60.214;24.724;2023-03-24T05:57:47;66.40;;;6.25;;
23728;SDS011;12045;60.214;24.724;2023-03-24T06:00:15;134.20;;;8.82;;
23728;SDS011;12045;60.214;24.724;2023-03-24T06:02:43;120.63;;;7.70;;
23728;SDS011;12045;60.214;24.724;2023-03-24T06:05:12;82.68;;;6.45;;
23728;SDS011;12045;60.214;24.724;2023-03-24T06:07:40;69.82;;;6.00;;
23728;SDS011;12045;60.214;24.724;2023-03-24T06:10:10;136.60;;;8.35;;
23728;SDS011;12045;60.214;24.724;2023-03-24T06:12:40;52.55;;;5.53;;
23728;SDS011;12045;60.214;24.724;2023-03-24T06:16:00;88.53;;;6.25;;
23728;SDS011;12045;60.214;24.724;2023-03-24T06:18:34;52.95;;;5.07;;
23728;SDS011;12045;60.214;24.724;2023-03-24T06:21:01;127.50;;;7.47;;
23728;SDS011;12045;60.214;24.724;2023-03-24T06:23:29;38.13;;;5.50;;
23728;SDS011;12045;60.214;24.724;2023-03-24T06:26:40;173.85;;;8.98;;
23728;SDS011;12045;60.214;24.724;2023-03-24T06:29:17;153.63;;;9.63;;
23728;SDS011;12045;60.214;24.724;2023-03-24T06:31:47;251.48;;;11.43;;
23728;SDS011;12045;60.214;24.724;2023-03-24T06:38:04;82.25;;;6.20;;
23728;SDS011;12045;60.214;24.724;2023-03-24T06:40:45;20.83;;;3.92;;
23728;SDS011;12045;60.214;24.724;2023-03-24T06:43:55;17.15;;;3.97;;
23728;SDS011;12045;60.214;24.724;2023-03-24T06:50:04;10.10;;;3.40;;
23728;SDS011;12045;60.214;24.724;2023-03-24T06:56:10;8.55;;;2.75;;
23728;SDS011;12045;60.214;24.724;2023-03-24T06:59:37;7.78;;;2.92;;
23728;SDS011;12045;60.214;24.724;2023-03-24T07:02:26;6.22;;;2.45;;
23728;SDS011;12045;60.214;24.724;2023-03-24T07:10:50;8.38;;;3.83;;
23728;SDS011;12045;60.214;24.724;2023-03-24T07:13:21;11.02;;;3.30;;
23728;SDS011;12045;60.214;24.724;2023-03-24T07:15:48;10.80;;;3.75;;
23728;SDS011;12045;60.214;24.724;2023-03-24T07:18:18;9.88;;;3.83;;
23728;SDS011;12045;60.214;24.724;2023-03-24T07:20:48;11.02;;;4.65;;
23728;SDS011;12045;60.214;24.724;2023-03-24T07:23:22;10.80;;;4.43;;
23728;SDS011;12045;60.214;24.724;2023-03-24T07:29:44;14.35;;;4.00;;
23728;SDS011;12045;60.214;24.724;2023-03-24T07:32:16;13.82;;;4.38;;
23728;SDS011;12045;60.214;24.724;2023-03-24T07:34:54;12.48;;;4.32;;
23728;SDS011;12045;60.214;24.724;2023-03-24T07:37:31;8.65;;;4.35;;
23728;SDS011;12045;60.214;24.724;2023-03-24T07:40:10;9.07;;;4.15;;
23728;SDS011;12045;60.214;24.724;2023-03-24T07:42:51;12.02;;;5.03;;
23728;SDS011;12045;60.214;24.724;2023-03-24T07:48:47;14.98;;;4.60;;
23728;SDS011;12045;60.214;24.724;2023-03-24T07:51:16;14.20;;;5.03;;
23728;SDS011;12045;60.214;24.724;2023-03-24T07:53:46;9.68;;;4.82;;
23728;SDS011;12045;60.214;24.724;2023-03-24T07:56:14;14.15;;;5.03;;
23728;SDS011;12045;60.214;24.724;2023-03-24T07:58:42;11.80;;;4.78;;
23728;SDS011;12045;60.214;24.724;2023-03-24T08:01:12;15.63;;;4.18;;
23728;SDS011;12045;60.214;24.724;2023-03-24T08:03:41;16.02;;;5.30;;
23728;SDS011;12045;60.214;24.724;2023-03-24T08:06:16;18.83;;;5.13;;
23728;SDS011;12045;60.214;24.724;2023-03-24T08:08:45;15.95;;;5.03;;
23728;SDS011;12045;60.214;24.724;2023-03-24T08:12:00;10.75;;;4.60;;
23728;SDS011;12045;60.214;24.724;2023-03-24T08:17:59;17.55;;;5.38;;
23728;SDS011;12045;60.214;24.724;2023-03-24T08:20:28;11.63;;;4.57;;
23728;SDS011;12045;60.214;24.724;2023-03-24T08:22:57;14.23;;;4.80;;
23728;SDS011;12045;60.214;24.724;2023-03-24T08:25:25;11.18;;;5.65;;
23728;SDS011;12045;60.214;24.724;2023-03-24T08:27:55;10.95;;;5.28;;
23728;SDS011;12045;60.214;24.724;2023-03-24T08:30:24;11.85;;;4.88;;
23728;SDS011;12045;60.214;24.724;2023-03-24T08:32:53;9.02;;;3.65;;
23728;SDS011;12045;60.214;24.724;2023-03-24T08:35:26;8.80;;;4.07;;
23728;SDS011;12045;60.214;24.724;2023-03-24T08:38:01;6.35;;;3.38;;
23728;SDS011;12045;60.214;24.724;2023-03-24T08:40:33;15.50;;;4.63;;
23728;SDS011;12045;60.214;24.724;2023-03-24T08:46:07;9.45;;;4.00;;
23728;SDS011;12045;60.214;24.724;2023-03-24T08:48:42;13.02;;;4.13;;
23728;SDS011;12045;60.214;24.724;2023-03-24T08:51:14;11.63;;;4.20;;
23728;SDS011;12045;60.214;24.724;2023-03-24T08:53:46;15.00;;;4.22;;
23728;SDS011;12045;60.214;24.724;2023-03-24T08:56:27;9.82;;;3.45;;
23728;SDS011;12045;60.214;24.724;2023-03-24T09:02:10;8.63;;;3.58;;
23728;SDS011;12045;60.214;24.724;2023-03-24T09:04:38;10.90;;;3.35;;
23728;SDS011;12045;60.214;24.724;2023-03-24T09:07:08;12.65;;;4.00;;
23728;SDS011;12045;60.214;24.724;2023-03-24T09:09:36;9.82;;;3.40;;
23728;SDS011;12045;60.214;24.724;2023-03-24T09:12:05;9.68;;;2.72;;
23728;SDS011;12045;60.214;24.724;2023-03-24T09:14:34;9.05;;;2.70;;
23728;SDS011;12045;60.214;24.724;2023-03-24T09:17:03;9.15;;;2.70;;
23728;SDS011;12045;60.214;24.724;2023-03-24T09:22:53;8.55;;;2.95;;
23728;SDS011;12045;60.214;24.724;2023-03-24T09:25:33;8.55;;;2.50;;
23728;SDS011;12045;60.214;24.724;2023-03-24T09:28:01;10.65;;;2.67;;
23728;SDS011;12045;60.214;24.724;2023-03-24T09:30:30;6.63;;;2.40;;
23728;SDS011;12045;60.214;24.724;2023-03-24T09:33:00;13.85;;;2.55;;
23728;SDS011;12045;60.214;24.724;2023-03-24T09:35:59;14.85;;;3.08;;
23728;SDS011;12045;60.214;24.724;2023-03-24T09:41:03;14.45;;;2.47;;
23728;SDS011;12045;60.214;24.724;2023-03-24T09:43:40;10.93;;;2.45;;
23728;SDS011;12045;60.214;24.724;2023-03-24T09:46:33;6.70;;;1.98;;
23728;SDS011;12045;60.214;24.724;2023-03-24T09:49:08;10.32;;;1.77;;
23728;SDS011;12045;60.214;24.724;2023-03-24T09:55:10;9.48;;;1.88;;
23728;SDS011;12045;60.214;24.724;2023-03-24T09:57:47;9.75;;;1.65;;
23728;SDS011;12045;60.214;24.724;2023-03-24T10:00:19;16.35;;;2.22;;
23728;SDS011;12045;60.214;24.724;2023-03-24T10:02:49;10.15;;;1.90;;
23728;SDS011;12045;60.214;24.724;2023-03-24T10:05:21;12.52;;;2.38;;
23728;SDS011;12045;60.214;24.724;2023-03-24T10:08:11;9.20;;;2.35;;
23728;SDS011;12045;60.214;24.724;2023-03-24T10:30:25;9.40;;;2.72;;
23728;SDS011;12045;60.214;24.724;2023-03-24T10:32:58;22.98;;;3.35;;
23728;SDS011;12045;60.214;24.724;2023-03-24T10:35:27;13.80;;;3.08;;
23728;SDS011;12045;60.214;24.724;2023-03-24T10:37:59;13.95;;;3.10;;
23728;SDS011;12045;60.214;24.724;2023-03-24T10:40:31;16.48;;;3.05;;
23728;SDS011;12045;60.214;24.724;2023-03-24T10:43:00;17.73;;;3.30;;
23728;SDS011;12045;60.214;24.724;2023-03-24T10:45:35;15.80;;;3.72;;
23728;SDS011;12045;60.214;24.724;2023-03-24T10:48:06;15.13;;;3.33;;
23728;SDS011;12045;60.214;24.724;2023-03-24T10:50:35;12.57;;;3.33;;
23728;SDS011;12045;60.214;24.724;2023-03-24T10:53:16;15.15;;;3.00;;
23728;SDS011;12045;60.214;24.724;2023-03-24T10:55:49;13.68;;;3.47;;
23728;SDS011;12045;60.214;24.724;2023-03-24T11:16:37;19.02;;;4.80;;
23728;SDS011;12045;60.214;24.724;2023-03-24T11:19:36;20.42;;;3.67;;
23728;SDS011;12045;60.214;24.724;2023-03-24T11:22:09;26.35;;;4.50;;
23728;SDS011;12045;60.214;24.724;2023-03-24T11:24:37;16.92;;;3.55;;
23728;SDS011;12045;60.214;24.724;2023-03-24T11:27:05;16.05;;;3.83;;
23728;SDS011;12045;60.214;24.724;2023-03-24T11:29:37;19.42;;;3.88;;
23728;SDS011;12045;60.214;24.724;2023-03-24T11:32:13;23.17;;;4.15;;
23728;SDS011;12045;60.214;24.724;2023-03-24T11:34:58;10.70;;;3.08;;
23728;SDS011;12045;60.214;24.724;2023-03-24T11:37:43;18.20;;;4.00;;
23728;SDS011;12045;60.214;24.724;2023-03-24T11:42:45;17.17;;;3.55;;
23728;SDS011;12045;60.214;24.724;2023-03-24T11:48:25;18.75;;;3.78;;
23728;SDS011;12045;60.214;24.724;2023-03-24T11:51:01;28.40;;;4.63;;
23728;SDS011;12045;60.214;24.724;2023-03-24T11:53:42;18.80;;;4.15;;
23728;SDS011;12045;60.214;24.724;2023-03-24T11:59:31;21.38;;;3.97;;
23728;SDS011;12045;60.214;24.724;2023-03-24T12:02:17;24.00;;;3.85;;
23728;SDS011;12045;60.214;24.724;2023-03-24T12:10:36;23.95;;;4.00;;
23728;SDS011;12045;60.214;24.724;2023-03-24T12:13:31;15.02;;;2.80;;
23728;SDS011;12045;60.214;24.724;2023-03-24T12:26:44;18.35;;;3.53;;
23728;SDS011;12045;60.214;24.724;2023-03-24T12:32:20;18.33;;;3.38;;
23728;SDS011;12045;60.214;24.724;2023-03-24T12:35:28;16.17;;;3.95;;
23728;SDS011;12045;60.214;24.724;2023-03-24T12:43:26;19.55;;;3.80;;
23728;SDS011;12045;60.214;24.724;2023-03-24T12:46:22;18.88;;;4.25;;
23728;SDS011;12045;60.214;24.724;2023-03-24T12:52:22;13.52;;;3.17;;
23728;SDS011;12045;60.214;24.724;2023-03-24T12:57:42;16.00;;;3.47;;
23728;SDS011;12045;60.214;24.724;2023-03-24T13:00:26;19.08;;;3.47;;
23728;SDS011;12045;60.214;24.724;2023-03-24T13:02:57;15.55;;;3.28;;
23728;SDS011;12045;60.214;24.724;2023-03-24T13:05:46;19.02;;;3.55;;
23728;SDS011;12045;60.214;24.724;2023-03-24T13:08:20;15.07;;;3.22;;
23728;SDS011;12045;60.214;24.724;2023-03-24T13:11:00;16.92;;;3.08;;
23728;SDS011;12045;60.214;24.724;2023-03-24T13:13:32;21.05;;;4.05;;
23728;SDS011;12045;60.214;24.724;2023-03-24T13:16:14;20.95;;;3.05;;
23728;SDS011;12045;60.214;24.724;2023-03-24T13:18:52;21.02;;;3.13;;
23728;SDS011;12045;60.214;24.724;2023-03-24T13:21:22;18.48;;;3.22;;
23728;SDS011;12045;60.214;24.724;2023-03-24T13:23:56;15.45;;;3.40;;
23728;SDS011;12045;60.214;24.724;2023-03-24T13:29:45;13.35;;;3.08;;
23728;SDS011;12045;60.214;24.724;2023-03-24T13:38:27;15.88;;;2.83;;
23728;SDS011;12045;60.214;24.724;2023-03-24T13:41:02;17.33;;;3.40;;
23728;SDS011;12045;60.214;24.724;2023-03-24T13:43:31;17.85;;;3.30;;
23728;SDS011;12045;60.214;24.724;2023-03-24T13:46:01;20.85;;;3.10;;
23728;SDS011;12045;60.214;24.724;2023-03-24T13:51:16;13.13;;;3.03;;
23728;SDS011;12045;60.214;24.724;2023-03-24T13:53:51;15.93;;;3.28;;
23728;SDS011;12045;60.214;24.724;2023-03-24T13:56:24;16.33;;;3.40;;
23728;SDS011;12045;60.214;24.724;2023-03-24T14:01:31;21.95;;;3.67;;
23728;SDS011;12045;60.214;24.724;2023-03-24T14:14:22;16.10;;;3.33;;
23728;SDS011;12045;60.214;24.724;2023-03-24T14:19:36;18.50;;;3.45;;
23728;SDS011;12045;60.214;24.724;2023-03-24T14:22:24;17.85;;;3.17;;
23728;SDS011;12045;60.214;24.724;2023-03-24T14:25:00;23.10;;;3.65;;
23728;SDS011;12045;60.214;24.724;2023-03-24T14:27:40;17.40;;;3.67;;
23728;SDS011;12045;60.214;24.724;2023-03-24T14:32:44;12.85;;;3.30;;
23728;SDS011;12045;60.214;24.724;2023-03-24T14:35:19;22.08;;;4.00;;
23728;SDS011;12045;60.214;24.724;2023-03-24T14:38:03;23.65;;;3.63;;
23728;SDS011;12045;60.214;24.724;2023-03-24T14:40:48;17.15;;;3.50;;
23728;SDS011;12045;60.214;24.724;2023-03-24T14:46:03;21.38;;;4.03;;
23728;SDS011;12045;60.214;24.724;2023-03-24T14:48:33;18.25;;;3.47;;
23728;SDS011;12045;60.214;24.724;2023-03-24T14:51:07;17.75;;;3.90;;
23728;SDS011;12045;60.214;24.724;2023-03-24T14:53:46;17.17;;;3.67;;
23728;SDS011;12045;60.214;24.724;2023-03-24T14:56:15;22.30;;;3.90;;
23728;SDS011;12045;60.214;24.724;2023-03-24T14:58:43;18.05;;;3.35;;
23728;SDS011;12045;60.214;24.724;2023-03-24T15:01:16;14.88;;;3.28;;
23728;SDS011;12045;60.214;24.724;2023-03-24T15:06:22;25.83;;;3.72;;
23728;SDS011;12045;60.214;24.724;2023-03-24T15:08:51;18.25;;;3.45;;
23728;SDS011;12045;60.214;24.724;2023-03-24T15:11:27;22.08;;;3.85;;
23728;SDS011;12045;60.214;24.724;2023-03-24T15:13:58;23.67;;;3.90;;
23728;SDS011;12045;60.214;24.724;2023-03-24T15:16:34;19.45;;;3.22;;
23728;SDS011;12045;60.214;24.724;2023-03-24T15:19:05;21.23;;;3.90;;
23728;SDS011;12045;60.214;24.724;2023-03-24T15:21:47;16.92;;;3.53;;
23728;SDS011;12045;60.214;24.724;2023-03-24T15:24:27;20.98;;;3.88;;
23728;SDS011;12045;60.214;24.724;2023-03-24T15:29:35;26.48;;;3.95;;
23728;SDS011;12045;60.214;24.724;2023-03-24T15:32:05;24.98;;;5.10;;
23728;SDS011;12045;60.214;24.724;2023-03-24T15:34:41;22.70;;;3.85;;
23728;SDS011;12045;60.214;24.724;2023-03-24T15:37:23;23.70;;;3.88;;
23728;SDS011;12045;60.214;24.724;2023-03-24T15:39:56;14.20;;;3.30;;
23728;SDS011;12045;60.214;24.724;2023-03-24T15:42:42;17.95;;;3.70;;
23728;SDS011;12045;60.214;24.724;2023-03-24T15:45:18;15.73;;;3.65;;
23728;SDS011;12045;60.214;24.724;2023-03-24T15:47:53;18.52;;;3.60;;
23728;SDS011;12045;60.214;24.724;2023-03-24T15:50:29;17.58;;;3.42;;
23728;SDS011;12045;60.214;24.724;2023-03-24T15:52:58;14.85;;;3.05;;
23728;SDS011;12045;60.214;24.724;2023-03-24T15:55:35;19.00;;;3.35;;
23728;SDS011;12045;60.214;24.724;2023-03-24T15:58:22;23.23;;;3.65;;
23728;SDS011;12045;60.214;24.724;2023-03-24T16:00:56;19.20;;;3.55;;
23728;SDS011;12045;60.214;24.724;2023-03-24T16:03:25;18.40;;;3.20;;
23728;SDS011;12045;60.214;24.724;2023-03-24T16:05:56;23.35;;;3.20;;
23728;SDS011;12045;60.214;24.724;2023-03-24T16:08:33;12.45;;;2.78;;
23728;SDS011;12045;60.214;24.724;2023-03-24T16:11:06;18.25;;;3.60;;
23728;SDS011;12045;60.214;24.724;2023-03-24T16:13:38;17.88;;;3.75;;
23728;SDS011;12045;60.214;24.724;2023-03-24T16:18:41;21.15;;;3.92;;
23728;SDS011;12045;60.214;24.724;2023-03-24T16:21:14;20.58;;;3.40;;
23728;SDS011;12045;60.214;24.724;2023-03-24T16:23:47;18.40;;;3.38;;
23728;SDS011;12045;60.214;24.724;2023-03-24T16:26:17;20.20;;;3.58;;
23728;SDS011;12045;60.214;24.724;2023-03-24T16:28:48;17.25;;;3.30;;
23728;SDS011;12045;60.214;24.724;2023-03-24T16:31:31;23.73;;;3.72;;
23728;SDS011;12045;60.214;24.724;2023-03-24T16:34:01;16.38;;;3.15;;
23728;SDS011;12045;60.214;24.724;2023-03-24T16:36:29;24.58;;;3.35;;
23728;SDS011;12045;60.214;24.724;2023-03-24T16:38:57;15.68;;;2.70;;
23728;SDS011;12045;60.214;24.724;2023-03-24T16:41:26;12.43;;;3.10;;
23728;SDS011;12045;60.214;24.724;2023-03-24T16:43:54;19.80;;;3.17;;
23728;SDS011;12045;60.214;24.724;2023-03-24T16:48:52;17.70;;;3.10;;
23728;SDS011;12045;60.214;24.724;2023-03-24T16:51:20;11.05;;;2.72;;
23728;SDS011;12045;60.214;24.724;2023-03-24T16:53:47;18.38;;;3.50;;
23728;SDS011;12045;60.214;24.724;2023-03-24T16:56:19;15.50;;;3.00;;
23728;SDS011;12045;60.214;24.724;2023-03-24T16:58:47;14.63;;;3.35;;
23728;SDS011;12045;60.214;24.724;2023-03-24T17:01:29;21.10;;;3.50;;
23728;SDS011;12045;60.214;24.724;2023-03-24T17:04:00;16.75;;;3.30;;
23728;SDS011;12045;60.214;24.724;2023-03-24T17:06:31;17.25;;;3.45;;
23728;SDS011;12045;60.214;24.724;2023-03-24T17:08:58;19.80;;;3.58;;
23728;SDS011;12045;60.214;24.724;2023-03-24T17:11:30;27.40;;;3.90;;
23728;SDS011;12045;60.214;24.724;2023-03-24T17:13:59;24.92;;;3.83;;
23728;SDS011;12045;60.214;24.724;2023-03-24T17:16:35;20.75;;;3.72;;
23728;SDS011;12045;60.214;24.724;2023-03-24T17:19:04;17.40;;;3.80;;
23728;SDS011;12045;60.214;24.724;2023-03-24T17:21:39;19.23;;;3.80;;
23728;SDS011;12045;60.214;24.724;2023-03-24T17:24:27;24.38;;;3.60;;
23728;SDS011;12045;60.214;24.724;2023-03-24T17:26:55;21.67;;;3.85;;
23728;SDS011;12045;60.214;24.724;2023-03-24T17:29:23;30.52;;;5.05;;
23728;SDS011;12045;60.214;24.724;2023-03-24T17:31:51;37.38;;;5.00;;
23728;SDS011;12045;60.214;24.724;2023-03-24T17:34:19;25.00;;;5.03;;
23728;SDS011;12045;60.214;24.724;2023-03-24T17:36:48;25.38;;;5.00;;
23728;SDS011;12045;60.214;24.724;2023-03-24T17:39:17;23.75;;;5.60;;
23728;SDS011;12045;60.214;24.724;2023-03-24T17:41:45;26.95;;;4.93;;
23728;SDS011;12045;60.214;24.724;2023-03-24T17:44:13;24.23;;;5.35;;
23728;SDS011;12045;60.214;24.724;2023-03-24T17:46:41;24.23;;;6.07;;
23728;SDS011;12045;60.214;24.724;2023-03-24T17:49:08;36.40;;;6.50;;
23728;SDS011;12045;60.214;24.724;2023-03-24T17:51:36;26.33;;;6.10;;
23728;SDS011;12045;60.214;24.724;2023-03-24T17:54:04;25.48;;;5.93;;
23728;SDS011;12045;60.214;24.724;2023-03-24T17:56:31;30.10;;;5.45;;
23728;SDS011;12045;60.214;24.724;2023-03-24T17:58:59;18.80;;;5.55;;
23728;SDS011;12045;60.214;24.724;2023-03-24T18:01:29;24.77;;;6.45;;
23728;SDS011;12045;60.214;24.724;2023-03-24T18:03:57;23.40;;;6.65;;
23728;SDS011;12045;60.214;24.724;2023-03-24T18:06:24;30.05;;;6.78;;
23728;SDS011;12045;60.214;24.724;2023-03-24T18:08:53;27.42;;;6.50;;
23728;SDS011;12045;60.214;24.724;2023-03-24T18:11:21;20.63;;;7.03;;
23728;SDS011;12045;60.214;24.724;2023-03-24T18:13:49;20.65;;;7.15;;
23728;SDS011;12045;60.214;24.724;2023-03-24T18:16:17;24.42;;;7.35;;
23728;SDS011;12045;60.214;24.724;2023-03-24T18:18:48;20.17;;;6.82;;
23728;SDS011;12045;60.214;24.724;2023-03-24T18:21:17;24.98;;;7.60;;
23728;SDS011;12045;60.214;24.724;2023-03-24T18:23:44;26.88;;;8.35;;
23728;SDS011;12045;60.214;24.724;2023-03-24T18:26:13;23.25;;;8.15;;
23728;SDS011;12045;60.214;24.724;2023-03-24T18:28:42;40.72;;;9.43;;
23728;SDS011;12045;60.214;24.724;2023-03-24T18:31:13;30.15;;;9.20;;
23728;SDS011;12045;60.214;24.724;2023-03-24T18:33:52;34.38;;;8.95;;